Time;durP1;ratioP1;P1;durP2;ratioP2;P2;SDS_P1;SDS_P2;PMS_P1;PMS_P2;Temp;Humidity;BMP_temperature;BMP_pressure;BME280_temperature;BME280_humidity;BME280_pressure;Samples;Min_cycle;Max_cycle;Signal;HPM_P1;HPM_P2
2023/06/05 00:01:17;;;;;;;0.40;0.40;;;;;;;12.08;48.74;101263.09;5128000;28;20023;-62
2023/06/05 00:03:43;;;;;;;0.30;0.30;;;;;;;12.04;48.90;101267.41;5128120;28;20074;-61
2023/06/05 00:06:09;;;;;;;0.30;0.30;;;;;;;12.01;48.79;101264.81;5128060;28;20057;-61
2023/06/05 00:08:35;;;;;;;0.30;0.30;;;;;;;11.96;48.81;101259.63;5128149;28;20478;-62
2023/06/05 00:11:00;;;;;;;1.40;1.40;;;;;;;11.85;48.97;101248.34;5127827;28;20051;-61
2023/06/05 00:13:25;;;;;;;0.30;0.30;;;;;;;11.89;48.96;101255.25;5127905;28;20050;-61
2023/06/05 00:15:52;;;;;;;0.30;0.30;;;;;;;11.87;49.18;101270.88;5128008;28;20203;-61
2023/06/05 00:18:18;;;;;;;0.50;0.50;;;;;;;11.87;48.94;101260.47;5127846;28;20035;-61
2023/06/05 00:20:44;;;;;;;0.30;0.30;;;;;;;11.86;48.88;101261.34;5127430;28;20040;-61
2023/06/05 00:23:11;;;;;;;0.30;0.30;;;;;;;11.84;49.17;101262.19;5127439;28;20107;-60
2023/06/05 00:25:36;;;;;;;0.40;0.40;;;;;;;11.84;50.06;101257.88;5127242;28;20023;-60
2023/06/05 00:28:02;;;;;;;0.30;0.30;;;;;;;11.87;49.34;101267.41;5127507;28;20076;-63
2023/06/05 00:30:27;;;;;;;0.30;0.30;;;;;;;11.86;49.14;101268.28;5127559;28;20016;-61
2023/06/05 00:32:53;;;;;;;0.30;0.30;;;;;;;11.82;49.53;101272.59;5127190;28;20019;-61
2023/06/05 00:35:18;;;;;;;0.30;0.30;;;;;;;11.80;49.83;101268.28;5127489;28;20095;-61
2023/06/05 00:37:46;;;;;;;0.30;0.30;;;;;;;11.78;49.50;101265.69;5127233;28;20027;-61
2023/06/05 00:40:12;;;;;;;0.30;0.30;;;;;;;11.76;49.25;101273.47;5127146;28;20022;-61
2023/06/05 00:42:37;;;;;;;0.40;0.40;;;;;;;11.69;49.17;101266.56;5127297;28;20075;-61
2023/06/05 00:45:03;;;;;;;0.30;0.30;;;;;;;11.66;48.98;101271.75;5127256;28;20051;-61
2023/06/05 00:47:29;;;;;;;0.40;0.40;;;;;;;11.61;49.24;101270.88;5127103;28;20028;-61
2023/06/05 00:49:55;;;;;;;0.30;0.30;;;;;;;11.53;49.09;101269.09;5127228;28;20016;-61
2023/06/05 00:52:21;;;;;;;0.30;0.30;;;;;;;11.53;49.22;101270.88;5108676;28;20035;-61
2023/06/05 00:54:46;;;;;;;0.30;0.30;;;;;;;11.45;49.12;101263.06;5127365;28;20031;-61
2023/06/05 00:57:12;;;;;;;0.30;0.30;;;;;;;11.46;49.34;101266.50;5126872;28;20701;-61
2023/06/05 00:59:37;;;;;;;0.40;0.40;;;;;;;11.43;49.39;101264.78;5127049;28;20023;-61
2023/06/05 01:02:04;;;;;;;0.40;0.40;;;;;;;11.40;49.32;101254.38;5126673;28;20477;-61
2023/06/05 01:04:29;;;;;;;0.30;0.30;;;;;;;11.37;49.16;101263.00;5126979;28;20028;-61
2023/06/05 01:06:57;;;;;;;0.30;0.30;;;;;;;11.33;49.36;101257.81;5126675;28;20100;-61
2023/06/05 01:09:24;;;;;;;0.40;0.40;;;;;;;11.31;49.46;101265.59;5127052;28;20054;-61
2023/06/05 01:12:03;;;;;;;0.30;0.30;;;;;;;11.24;49.41;101243.06;5126939;28;20044;-61
2023/06/05 01:14:30;;;;;;;0.40;0.40;;;;;;;11.33;49.35;101265.59;5126839;28;20020;-61
2023/06/05 01:17:00;;;;;;;0.40;0.40;;;;;;;11.30;49.37;101253.47;5126678;28;20027;-61
2023/06/05 01:19:28;;;;;;;0.30;0.30;;;;;;;11.33;49.42;101253.47;5126516;28;20048;-61
2023/06/05 01:21:55;;;;;;;0.30;0.30;;;;;;;11.36;49.26;101252.63;5126335;28;20081;-61
2023/06/05 01:24:22;;;;;;;0.30;0.30;;;;;;;11.39;49.33;101261.28;5126521;28;20024;-61
2023/06/05 01:26:53;;;;;;;0.40;0.40;;;;;;;11.40;49.24;101252.66;5126539;28;20028;-60
2023/06/05 01:29:28;;;;;;;0.30;0.30;;;;;;;11.42;49.32;101256.97;5126331;28;20054;-60
2023/06/05 01:31:58;;;;;;;0.30;0.30;;;;;;;11.42;49.24;101255.25;5126420;28;20045;-60
2023/06/05 01:34:26;;;;;;;0.30;0.30;;;;;;;11.39;49.48;101250.91;5126328;28;20152;-60
2023/06/05 01:36:53;;;;;;;0.30;0.30;;;;;;;11.37;49.56;101252.63;5125217;28;20028;-60
2023/06/05 01:39:19;;;;;;;0.30;0.30;;;;;;;11.39;49.46;101252.63;5125987;28;20024;-60
2023/06/05 01:41:46;;;;;;;0.30;0.30;;;;;;;11.28;49.35;101234.41;5126009;28;20020;-62
2023/06/05 01:44:15;;;;;;;0.40;0.40;;;;;;;11.40;49.45;101254.38;5107888;28;20034;-60
2023/06/05 01:46:41;;;;;;;0.30;0.30;;;;;;;11.41;49.67;101256.09;5126128;28;20065;-61
2023/06/05 01:49:08;;;;;;;0.30;0.30;;;;;;;11.37;49.53;101250.00;5126099;28;20023;-60
2023/06/05 01:51:34;;;;;;;0.30;0.30;;;;;;;11.36;49.49;101250.88;5125777;28;20011;-60
2023/06/05 01:54:00;;;;;;;0.30;0.30;;;;;;;11.28;49.58;101237.88;5126318;28;20030;-61
2023/06/05 01:56:25;;;;;;;0.30;0.30;;;;;;;11.28;49.55;101250.88;5125866;28;20379;-61
2023/06/05 01:58:52;;;;;;;0.40;0.40;;;;;;;11.22;49.75;101248.25;5125991;28;20028;-61
2023/06/05 02:01:22;;;;;;;0.30;0.30;;;;;;;11.21;49.97;101250.88;5126041;28;20039;-61
2023/06/05 02:03:47;;;;;;;0.40;0.40;;;;;;;11.17;50.13;101246.53;5125914;28;20015;-61
2023/06/05 02:06:15;;;;;;;0.30;0.30;;;;;;;11.09;52.13;101252.56;5125633;28;20027;-61
2023/06/05 02:08:40;;;;;;;1.20;1.20;;;;;;;11.10;57.07;101256.88;5125987;28;20155;-60
2023/06/05 02:11:09;;;;;;;0.30;0.30;;;;;;;11.13;58.72;101249.09;5125740;28;20482;-61
2023/06/05 02:13:43;;;;;;;0.30;0.30;;;;;;;11.17;58.30;101246.53;5125669;28;20019;-61
2023/06/05 02:16:10;;;;;;;0.30;0.30;;;;;;;11.23;58.45;101251.75;5125510;28;20031;-61
2023/06/05 02:18:37;;;;;;;0.40;0.40;;;;;;;11.26;57.03;101246.56;5125389;28;20080;-61
2023/06/05 02:21:03;;;;;;;0.30;0.30;;;;;;;11.33;56.41;101258.69;5125352;28;20050;-60
2023/06/05 02:23:29;;;;;;;0.30;0.30;;;;;;;11.37;55.92;101255.22;5125540;28;20031;-60
2023/06/05 02:25:55;;;;;;;0.40;0.40;;;;;;;11.37;57.08;101249.16;5125635;28;20015;-60
2023/06/05 02:28:21;;;;;;;0.30;0.30;;;;;;;11.33;57.29;101248.28;5125633;28;20019;-61
2023/06/05 02:30:47;;;;;;;0.30;0.30;;;;;;;11.35;57.40;101251.75;5125521;28;20019;-61
2023/06/05 02:33:14;;;;;;;0.30;0.30;;;;;;;11.40;57.91;101251.78;5125608;28;20038;-60
2023/06/05 02:35:40;;;;;;;0.30;0.30;;;;;;;11.48;57.36;101250.06;5125582;28;20030;-61
2023/06/05 02:38:09;;;;;;;0.30;0.30;;;;;;;11.53;59.00;101255.25;5125112;28;20056;-60
2023/06/05 02:40:35;;;;;;;0.75;0.75;;;;;;;11.63;58.61;101251.78;5125464;28;20024;-61
2023/06/05 02:43:01;;;;;;;0.30;0.30;;;;;;;11.69;58.53;101245.75;5125572;28;20108;-61
2023/06/05 02:45:26;;;;;;;0.32;0.32;;;;;;;11.85;59.29;101250.94;5125584;28;20019;-61
2023/06/05 02:47:52;;;;;;;0.35;0.35;;;;;;;11.96;61.42;101256.13;5125973;28;20030;-61
2023/06/05 02:50:17;;;;;;;0.30;0.30;;;;;;;12.11;60.25;101250.94;5129478;28;20114;-61
2023/06/05 02:52:42;;;;;;;0.30;0.30;;;;;;;12.20;61.03;101252.69;5129341;28;20020;-61
2023/06/05 02:55:09;;;;;;;0.52;0.52;;;;;;;12.35;61.07;101256.97;5129441;28;20028;-61
2023/06/05 02:57:40;;;;;;;0.30;0.30;;;;;;;12.41;61.12;101248.31;5129172;28;20084;-61
2023/06/05 03:00:14;;;;;;;0.43;0.43;;;;;;;12.47;62.17;101248.28;5129418;28;20015;-62
2023/06/05 03:02:40;;;;;;;0.47;0.47;;;;;;;12.51;62.51;101246.50;5129218;28;20035;-60
2023/06/05 03:05:07;;;;;;;0.30;0.30;;;;;;;12.53;65.10;101247.38;5129513;28;20024;-61
2023/06/05 03:07:33;;;;;;;0.30;0.30;;;;;;;12.59;65.73;101249.09;5128944;28;20047;-60
2023/06/05 03:10:00;;;;;;;0.30;0.30;;;;;;;12.61;66.10;101248.25;5129421;28;20039;-61
2023/06/05 03:12:25;;;;;;;0.30;0.30;;;;;;;12.59;65.86;101243.88;5110876;28;20128;-60
2023/06/05 03:14:51;;;;;;;0.40;0.40;;;;;;;12.69;67.13;101253.41;5129234;28;20548;-60
2023/06/05 03:17:16;;;;;;;0.30;0.30;;;;;;;12.63;67.56;101243.91;5128995;28;20019;-61
2023/06/05 03:19:41;;;;;;;0.30;0.30;;;;;;;12.77;67.09;101253.38;5128721;28;20051;-60
2023/06/05 03:22:07;;;;;;;0.30;0.30;;;;;;;12.72;65.82;101229.97;5128738;28;20015;-60
2023/06/05 03:24:32;;;;;;;0.30;0.30;;;;;;;12.92;65.87;101259.41;5128869;28;20032;-61
2023/06/05 03:26:58;;;;;;;0.30;0.30;;;;;;;12.95;66.22;101256.78;5128708;28;20069;-60
2023/06/05 03:29:23;;;;;;;0.70;0.70;;;;;;;13.06;64.67;101252.41;5128703;28;20087;-61
2023/06/05 03:31:48;;;;;;;1.52;1.42;;;;;;;13.13;65.63;101258.44;5128697;28;20020;-61
2023/06/05 03:34:14;;;;;;;0.30;0.30;;;;;;;13.20;64.45;101254.91;5128773;28;20024;-61
2023/06/05 03:36:39;;;;;;;0.30;0.30;;;;;;;13.29;63.54;101253.13;5128472;28;20022;-61
2023/06/05 03:39:06;;;;;;;0.30;0.30;;;;;;;13.30;63.42;101253.13;5128590;28;20019;-61
2023/06/05 03:41:32;;;;;;;0.30;0.30;;;;;;;13.35;64.03;101259.19;5128617;28;20023;-61
2023/06/05 03:43:57;;;;;;;0.30;0.30;;;;;;;13.43;63.93;101259.13;5128503;28;20372;-61
2023/06/05 03:46:23;;;;;;;0.30;0.30;;;;;;;13.47;64.13;101252.13;5128339;28;20027;-61
2023/06/05 03:48:49;;;;;;;0.80;0.75;;;;;;;13.60;64.81;101260.78;5128530;28;20090;-61
2023/06/05 03:51:18;;;;;;;0.30;0.30;;;;;;;13.55;65.31;101241.66;5128346;28;20015;-61
2023/06/05 03:53:44;;;;;;;0.30;0.30;;;;;;;13.78;63.86;101261.50;5128490;28;20019;-61
2023/06/05 03:56:11;;;;;;;0.30;0.30;;;;;;;13.87;63.18;101251.88;5128426;28;20032;-61
2023/06/05 03:58:38;;;;;;;0.30;0.30;;;;;;;13.93;63.93;101257.91;5128043;28;20459;-61
2023/06/05 04:01:03;;;;;;;0.30;0.30;;;;;;;14.06;63.41;101259.53;5127299;28;20051;-60
2023/06/05 04:03:29;;;;;;;0.30;0.30;;;;;;;14.10;63.65;101252.53;5128031;28;20023;-61
2023/06/05 04:05:54;;;;;;;0.30;0.30;;;;;;;14.12;64.75;101248.19;5128121;28;20024;-61
2023/06/05 04:08:19;;;;;;;0.50;0.50;;;;;;;14.22;64.16;101248.94;5127882;28;20027;-61
2023/06/05 04:10:45;;;;;;;0.40;0.40;;;;;;;14.35;63.27;101247.94;5128011;28;20023;-60
2023/06/05 04:13:11;;;;;;;0.30;0.30;;;;;;;14.41;63.80;101244.38;5127861;28;20093;-60
2023/06/05 04:15:36;;;;;;;0.30;0.30;;;;;;;14.56;63.38;101247.69;5109587;28;20114;-61
2023/06/05 04:18:02;;;;;;;0.30;0.30;;;;;;;14.72;64.59;101251.00;5127861;28;20087;-61
2023/06/05 04:20:27;;;;;;;0.30;0.30;;;;;;;15.06;65.59;101250.63;5127473;28;20154;-60
2023/06/05 04:22:53;;;;;;;0.30;0.30;;;;;;;15.77;66.73;101254.81;5127694;28;20093;-61
2023/06/05 04:25:18;;;;;;;0.30;0.30;;;;;;;16.66;65.68;101248.81;5127820;28;20079;-61
2023/06/05 04:27:45;;;;;;;0.20;0.20;;;;;;;17.56;63.77;101248.63;5127604;28;20035;-61
2023/06/05 04:30:13;;;;;;;0.20;0.20;;;;;;;18.50;62.35;101243.59;5127611;28;20023;-61
2023/06/05 04:32:39;;;;;;;0.30;0.30;;;;;;;19.29;60.08;101245.69;5127888;28;20093;-61
2023/06/05 04:35:06;;;;;;;0.55;0.55;;;;;;;20.26;60.19;101241.59;5127549;28;20189;-61
2023/06/05 04:37:36;;;;;;;0.28;0.28;;;;;;;20.97;57.32;101242.56;5127208;28;20083;-61
2023/06/05 04:40:05;;;;;;;0.28;0.28;;;;;;;21.91;57.34;101243.19;5127733;28;20098;-61
2023/06/05 04:42:31;;;;;;;0.20;0.20;;;;;;;22.62;55.50;101234.81;5127350;28;20018;-61
2023/06/05 04:45:00;;;;;;;0.20;0.20;;;;;;;23.18;54.10;101244.59;5127466;28;20100;-61
2023/06/05 04:47:26;;;;;;;0.43;0.43;;;;;;;23.78;54.11;101238.13;5127034;28;20020;-61
2023/06/05 04:49:53;;;;;;;0.20;0.20;;;;;;;24.30;52.16;101238.16;5127367;28;20034;-61
2023/06/05 04:52:20;;;;;;;0.20;0.20;;;;;;;24.82;50.02;101236.22;5126998;28;20061;-61
2023/06/05 04:54:46;;;;;;;0.10;0.10;;;;;;;25.29;48.61;101237.16;5127407;28;20032;-61
2023/06/05 04:57:12;;;;;;;0.43;0.43;;;;;;;25.97;47.80;101228.81;5127273;28;20042;-61
2023/06/05 04:59:37;;;;;;;0.13;0.13;;;;;;;26.36;47.83;101234.44;5127100;28;20031;-61
2023/06/05 05:02:03;;;;;;;0.10;0.10;;;;;;;26.28;45.31;101234.03;5108591;28;20028;-61
2023/06/05 05:04:29;;;;;;;0.10;0.10;;;;;;;26.47;44.46;101229.28;5127187;28;20467;-62
2023/06/05 05:07:00;;;;;;;0.98;0.98;;;;;;;27.11;44.37;101227.06;5126878;28;20418;-61
2023/06/05 05:09:26;;;;;;;0.17;0.17;;;;;;;27.30;43.15;101221.38;5127069;28;20100;-62
2023/06/05 05:11:52;;;;;;;0.10;0.10;;;;;;;27.72;42.15;101223.06;5125883;28;20020;-62
2023/06/05 05:14:17;;;;;;;0.10;0.10;;;;;;;27.92;40.93;101221.72;5126635;28;20019;-62
2023/06/05 05:16:43;;;;;;;0.40;0.40;;;;;;;28.30;41.30;101225.28;5126523;28;20027;-62
2023/06/05 05:19:08;;;;;;;0.38;0.38;;;;;;;28.59;40.45;101221.53;5126681;28;20072;-61
2023/06/05 05:21:34;;;;;;;0.52;0.52;;;;;;;28.74;39.77;101213.34;5126096;28;20019;-61
2023/06/05 05:24:00;;;;;;;0.40;0.40;;;;;;;28.86;38.50;101222.28;5126527;28;20051;-61
2023/06/05 05:26:26;;;;;;;0.10;0.10;;;;;;;28.64;36.80;101229.19;5126141;28;20022;-61
2023/06/05 05:28:51;;;;;;;0.10;0.10;;;;;;;28.44;37.03;101229.66;5126602;28;20049;-61
2023/06/05 05:31:17;;;;;;;0.10;0.10;;;;;;;28.33;37.01;101225.09;5126235;28;20031;-60
2023/06/05 05:33:42;;;;;;;0.10;0.10;;;;;;;28.86;37.59;101223.13;5126176;28;20035;-61
2023/06/05 05:36:08;;;;;;;0.10;0.10;;;;;;;28.82;36.26;101217.16;5126320;28;20435;-60
2023/06/05 05:38:34;;;;;;;0.32;0.32;;;;;;;28.84;35.59;101230.41;5125923;28;20471;-61
2023/06/05 05:40:59;;;;;;;0.40;0.40;;;;;;;28.83;34.96;101226.88;5126117;28;20494;-60
2023/06/05 05:43:25;;;;;;;0.10;0.10;;;;;;;28.82;35.26;101230.50;5126008;28;20026;-60
2023/06/05 05:45:51;;;;;;;0.10;0.10;;;;;;;28.51;35.00;101234.56;5125888;28;20024;-61
2023/06/05 05:48:17;;;;;;;0.13;0.13;;;;;;;28.35;34.96;101233.00;5125896;28;20087;-62
2023/06/05 05:50:42;;;;;;;0.47;0.47;;;;;;;28.25;35.10;101232.78;5126251;28;20038;-61
2023/06/05 05:53:08;;;;;;;0.10;0.10;;;;;;;27.96;35.17;101241.88;5126074;28;20047;-62
2023/06/05 05:55:33;;;;;;;8.20;1.38;;;;;;;27.74;35.42;101242.50;5125761;28;20027;-63
2023/06/05 05:57:58;;;;;;;0.43;0.43;;;;;;;28.08;35.65;101237.47;5125698;28;20026;-61
2023/06/05 06:00:24;;;;;;;0.10;0.10;;;;;;;28.46;36.14;101234.91;5125568;28;20125;-61
2023/06/05 06:02:51;;;;;;;0.40;0.40;;;;;;;28.80;36.04;101235.09;5126150;28;20035;-62
2023/06/05 06:05:17;;;;;;;0.40;0.40;;;;;;;28.79;35.92;101238.75;5126276;28;20027;-62
2023/06/05 06:07:42;;;;;;;0.20;0.20;;;;;;;28.90;35.06;101240.63;5125769;28;20024;-62
2023/06/05 06:10:09;;;;;;;0.47;0.47;;;;;;;28.82;34.80;101243.00;5125982;28;20030;-62
2023/06/05 06:12:34;;;;;;;0.10;0.10;;;;;;;28.78;34.40;101247.75;5125882;28;20454;-61
2023/06/05 06:15:00;;;;;;;0.80;0.80;;;;;;;28.51;35.52;101243.44;5125543;28;20051;-61
2023/06/05 06:17:27;;;;;;;0.10;0.10;;;;;;;28.56;35.69;101246.63;5125819;28;20024;-63
2023/06/05 06:19:52;;;;;;;0.10;0.10;;;;;;;28.58;35.22;101243.84;5125695;28;20547;-62
2023/06/05 06:22:18;;;;;;;0.73;0.73;;;;;;;28.59;35.32;101242.88;5125129;28;20055;-63
2023/06/05 06:24:43;;;;;;;0.10;0.10;;;;;;;28.01;34.50;101230.00;5125662;28;20030;-62
2023/06/05 06:27:10;;;;;;;0.20;0.20;;;;;;;27.61;34.76;101245.09;5125673;28;20488;-63
2023/06/05 06:29:37;;;;;;;0.22;0.22;;;;;;;27.48;35.17;101239.75;5125610;28;20421;-62
2023/06/05 06:32:03;;;;;;;0.10;0.10;;;;;;;27.50;35.34;101251.16;5125616;28;20028;-64
2023/06/05 06:34:29;;;;;;;0.65;0.65;;;;;;;27.19;35.30;101247.91;5125376;28;20031;-62
2023/06/05 06:36:54;;;;;;;0.50;0.50;;;;;;;27.14;35.98;101250.84;5125507;28;20028;-62
2023/06/05 06:39:19;;;;;;;0.10;0.10;;;;;;;27.04;36.05;101255.09;5125390;28;20455;-62
2023/06/05 06:41:45;;;;;;;0.10;0.10;;;;;;;26.83;36.03;101248.34;5125637;28;20034;-63
2023/06/05 06:44:11;;;;;;;0.20;0.20;;;;;;;26.81;36.01;101244.06;5125347;28;20028;-62
2023/06/05 06:46:36;;;;;;;0.20;0.20;;;;;;;26.84;36.10;101255.38;5125310;28;20046;-62
2023/06/05 06:49:02;;;;;;;0.85;0.85;;;;;;;26.95;35.73;101246.69;5125285;28;20050;-63
2023/06/05 06:51:27;;;;;;;1.30;1.27;;;;;;;26.94;36.31;101253.00;5125221;28;20023;-61
2023/06/05 06:53:53;;;;;;;0.32;0.32;;;;;;;27.32;35.96;101247.91;5125379;28;20501;-63
2023/06/05 06:56:18;;;;;;;0.30;0.30;;;;;;;27.54;35.40;101246.50;5106949;28;20444;-61
2023/06/05 06:58:45;;;;;;;0.10;0.10;;;;;;;27.57;35.33;101251.63;5125240;28;20502;-63
2023/06/05 07:01:11;;;;;;;0.10;0.10;;;;;;;27.59;35.02;101252.34;5125384;28;20088;-63
2023/06/05 07:03:38;;;;;;;1.50;0.35;;;;;;;27.17;35.05;101250.66;5125263;28;20024;-63
2023/06/05 07:06:03;;;;;;;0.10;0.10;;;;;;;26.70;35.63;101250.94;5125336;28;20049;-62
2023/06/05 07:08:29;;;;;;;0.10;0.10;;;;;;;26.56;35.71;101250.97;5124847;28;20024;-63
2023/06/05 07:10:55;;;;;;;0.20;0.20;;;;;;;26.36;35.98;101245.06;5125169;28;20019;-62
2023/06/05 07:13:21;;;;;;;0.80;0.80;;;;;;;25.93;36.24;101260.03;5125428;28;20031;-63
2023/06/05 07:15:47;;;;;;;0.35;0.35;;;;;;;25.76;37.01;101254.88;5125473;28;20020;-62
2023/06/05 07:18:12;;;;;;;0.10;0.10;;;;;;;25.67;36.92;101251.81;5125098;28;20434;-62
2023/06/05 07:20:37;;;;;;;0.30;0.30;;;;;;;25.60;37.45;101253.09;5124965;28;20132;-62
2023/06/05 07:23:03;;;;;;;0.10;0.10;;;;;;;25.71;37.01;101252.50;5124958;28;20123;-62
2023/06/05 07:25:29;;;;;;;0.17;0.17;;;;;;;25.63;37.06;101252.97;5125141;28;20019;-63
2023/06/05 07:27:54;;;;;;;0.30;0.30;;;;;;;25.42;37.37;101250.59;5125058;28;20026;-62
2023/06/05 07:30:20;;;;;;;0.10;0.10;;;;;;;25.24;37.72;101248.03;5125297;28;20039;-62
2023/06/05 07:32:45;;;;;;;0.10;0.10;;;;;;;25.22;37.97;101241.13;5125218;28;20011;-61
2023/06/05 07:35:12;;;;;;;0.20;0.20;;;;;;;25.58;37.54;101245.22;5126062;28;20525;-62
2023/06/05 07:37:39;;;;;;;0.20;0.20;;;;;;;25.66;37.39;101238.63;5128732;28;20054;-63
2023/06/05 07:40:05;;;;;;;0.20;0.20;;;;;;;25.98;37.05;101243.81;5128716;28;20027;-62
2023/06/05 07:42:31;;;;;;;0.85;0.85;;;;;;;26.09;36.74;101240.47;5128614;28;20047;-62
2023/06/05 07:44:56;;;;;;;0.20;0.20;;;;;;;26.17;36.58;101243.53;5128810;28;20035;-61
2023/06/05 07:47:22;;;;;;;1.58;1.48;;;;;;;26.44;36.38;101244.63;5128697;28;20352;-62
2023/06/05 07:50:00;;;;;;;0.25;0.25;;;;;;;26.89;35.87;101247.09;5128728;28;20028;-63
2023/06/05 07:52:27;;;;;;;0.10;0.10;;;;;;;27.37;35.76;101245.81;5128389;28;20015;-62
2023/06/05 07:54:53;;;;;;;0.10;0.10;;;;;;;27.46;35.24;101245.19;5128457;28;20048;-62
2023/06/05 07:57:19;;;;;;;3.83;0.82;;;;;;;27.51;35.04;101244.03;5128186;28;20030;-62
2023/06/05 07:59:44;;;;;;;0.47;0.47;;;;;;;27.56;34.32;101250.75;5128366;28;20023;-62
2023/06/05 08:02:10;;;;;;;0.20;0.20;;;;;;;27.55;34.80;101243.72;5128183;28;20026;-60
2023/06/05 08:04:35;;;;;;;0.40;0.40;;;;;;;27.47;34.46;101243.38;5128180;28;20045;-63
2023/06/05 08:07:01;;;;;;;0.10;0.10;;;;;;;27.52;34.66;101248.41;5128180;28;20047;-63
2023/06/05 08:09:27;;;;;;;0.10;0.10;;;;;;;27.74;34.88;101254.97;5128209;28;20058;-63
2023/06/05 08:11:52;;;;;;;0.40;0.40;;;;;;;27.93;33.77;101246.56;5128260;28;20023;-62
2023/06/05 08:14:18;;;;;;;1.88;1.60;;;;;;;27.91;34.13;101252.00;5128133;28;20027;-62
2023/06/05 08:16:43;;;;;;;1.38;1.38;;;;;;;27.91;33.42;101254.66;5128008;28;20035;-62
2023/06/05 08:19:09;;;;;;;0.55;0.55;;;;;;;27.89;33.88;101259.28;5127774;28;20027;-62
2023/06/05 08:21:36;;;;;;;0.28;0.28;;;;;;;27.89;33.97;101251.28;5127793;28;20548;-61
2023/06/05 08:24:02;;;;;;;3.92;1.65;;;;;;;28.04;33.55;101261.81;5128027;28;20046;-63
2023/06/05 08:26:27;;;;;;;0.90;0.90;;;;;;;28.16;33.62;101252.97;5127913;28;20024;-63
2023/06/05 08:28:53;;;;;;;0.17;0.17;;;;;;;28.34;33.37;101257.97;5109637;28;20039;-63
2023/06/05 08:31:18;;;;;;;1.90;0.73;;;;;;;28.44;33.29;101243.03;5127783;28;20023;-63
2023/06/05 08:33:44;;;;;;;0.10;0.10;;;;;;;28.67;32.84;101258.34;5127429;28;20600;-62
2023/06/05 08:36:09;;;;;;;0.20;0.20;;;;;;;28.70;33.02;101250.97;5127704;28;20079;-62
2023/06/05 08:38:35;;;;;;;0.10;0.10;;;;;;;28.74;32.49;101250.75;5127390;28;20029;-63
2023/06/05 08:41:07;;;;;;;0.35;0.35;;;;;;;28.93;33.20;101255.59;5127639;28;20071;-62
2023/06/05 08:43:35;;;;;;;0.10;0.10;;;;;;;29.29;32.52;101255.66;5127517;28;20024;-63
2023/06/05 08:46:01;;;;;;;1.00;1.00;;;;;;;29.49;32.22;101256.00;5127291;28;20102;-62
2023/06/05 08:48:31;;;;;;;0.43;0.43;;;;;;;29.61;31.79;101238.16;5127238;28;20034;-63
2023/06/05 08:50:58;;;;;;;0.10;0.10;;;;;;;29.90;31.58;101253.81;5127751;28;20027;-63
2023/06/05 08:53:28;;;;;;;0.60;0.60;;;;;;;29.90;31.25;101252.00;5127263;28;20036;-63
2023/06/05 08:55:55;;;;;;;0.35;0.35;;;;;;;29.94;30.93;101249.91;5127534;28;20024;-63
2023/06/05 08:58:21;;;;;;;0.10;0.10;;;;;;;29.80;30.05;101259.00;5127012;28;20451;-63
2023/06/05 09:00:49;;;;;;;0.35;0.35;;;;;;;29.43;30.42;101255.47;5127179;28;20035;-62
2023/06/05 09:03:20;;;;;;;0.25;0.25;;;;;;;29.49;30.84;101254.16;5127214;28;20020;-63
2023/06/05 09:05:47;;;;;;;0.17;0.17;;;;;;;29.59;30.67;101242.78;5127186;28;20055;-63
2023/06/05 09:08:13;;;;;;;0.10;0.10;;;;;;;29.59;30.57;101246.31;5126739;28;20038;-63
2023/06/05 09:10:39;;;;;;;0.10;0.10;;;;;;;29.83;31.04;101242.72;5127017;28;20025;-63
2023/06/05 09:13:04;;;;;;;0.63;0.63;;;;;;;30.40;29.64;101236.56;5126957;28;20027;-62
2023/06/05 09:15:33;;;;;;;0.20;0.20;;;;;;;30.63;29.82;101234.69;5127073;28;20083;-63
2023/06/05 09:18:08;;;;;;;0.20;0.20;;;;;;;30.65;29.20;101238.13;5108454;28;20023;-63
2023/06/05 09:20:34;;;;;;;0.22;0.22;;;;;;;30.67;28.27;101217.38;5126456;28;20078;-63
2023/06/05 09:23:02;;;;;;;0.10;0.10;;;;;;;30.79;28.15;101228.97;5126691;28;20035;-63
2023/06/05 09:25:43;;;;;;;0.10;0.10;;;;;;;31.04;28.34;101228.75;5126759;28;20027;-63
2023/06/05 09:28:09;;;;;;;0.63;0.63;;;;;;;31.11;28.37;101226.41;5126342;28;20049;-62
2023/06/05 09:30:54;;;;;;;0.10;0.10;;;;;;;31.02;27.79;101228.03;5126644;28;20046;-63
2023/06/05 09:33:20;;;;;;;0.20;0.20;;;;;;;31.02;28.06;101230.72;5126577;28;20093;-62
2023/06/05 09:35:45;;;;;;;0.10;0.10;;;;;;;31.09;27.76;101233.75;5126483;28;20057;-63
2023/06/05 09:38:27;;;;;;;0.50;0.50;;;;;;;31.20;27.22;101235.53;5126087;28;20035;-62
2023/06/05 09:40:53;;;;;;;0.20;0.20;;;;;;;31.29;27.13;101238.28;5126395;28;20378;-63
2023/06/05 09:43:24;;;;;;;0.10;0.10;;;;;;;31.28;26.87;101227.66;5126357;28;20054;-64
2023/06/05 09:45:50;;;;;;;0.10;0.10;;;;;;;31.27;26.61;101231.34;5126349;28;20032;-64
2023/06/05 09:48:16;;;;;;;0.10;0.10;;;;;;;31.31;25.80;101227.44;5126099;28;20028;-62
2023/06/05 09:50:42;;;;;;;0.10;0.10;;;;;;;31.24;26.21;101232.47;5126193;28;20031;-63
2023/06/05 09:53:08;;;;;;;0.10;0.10;;;;;;;31.17;26.82;101232.13;5125908;28;20026;-63
2023/06/05 09:55:35;;;;;;;0.10;0.10;;;;;;;31.15;25.76;101228.69;5126123;28;20034;-64
2023/06/05 09:58:10;;;;;;;0.28;0.28;;;;;;;31.01;26.20;101227.19;5125586;28;20023;-63
2023/06/05 10:00:38;;;;;;;0.10;0.10;;;;;;;31.25;26.18;101236.81;5125921;28;20065;-63
2023/06/05 10:03:13;;;;;;;0.10;0.10;;;;;;;31.36;24.53;101233.22;5126132;28;20032;-63
2023/06/05 10:05:40;;;;;;;0.30;0.30;;;;;;;31.11;24.90;101227.25;5126098;28;20023;-63
2023/06/05 10:08:06;;;;;;;0.35;0.35;;;;;;;30.98;24.99;101223.88;5125864;28;20037;-63
2023/06/05 10:10:33;;;;;;;0.10;0.10;;;;;;;31.01;25.82;101227.19;5125842;28;20028;-63
2023/06/05 10:13:01;;;;;;;0.10;0.10;;;;;;;31.19;25.38;101229.31;5125891;28;20035;-63
2023/06/05 10:15:27;;;;;;;0.20;0.20;;;;;;;31.24;25.01;101224.41;5125890;28;20038;-63
2023/06/05 10:17:54;;;;;;;0.10;0.10;;;;;;;30.96;25.05;101229.38;5125739;28;20070;-62
2023/06/05 10:20:21;;;;;;;2.65;2.55;;;;;;;30.85;25.38;101219.56;5125622;28;20463;-63
2023/06/05 10:22:50;;;;;;;0.10;0.10;;;;;;;30.80;25.83;101219.94;5125370;28;20084;-63
2023/06/05 10:25:19;;;;;;;0.68;0.68;;;;;;;30.90;25.69;101225.41;5125809;28;20023;-63
2023/06/05 10:28:16;;;;;;;0.10;0.10;;;;;;;30.90;25.43;101220.03;5125904;28;20043;-63
2023/06/05 10:31:09;;;;;;;0.45;0.45;;;;;;;30.71;25.31;101215.31;5125890;28;20023;-63
2023/06/05 10:33:43;;;;;;;0.10;0.10;;;;;;;30.38;25.62;101225.97;5125689;28;20027;-63
2023/06/05 10:36:16;;;;;;;0.30;0.30;;;;;;;30.22;25.56;101220.13;5125787;28;20086;-64
2023/06/05 10:38:44;;;;;;;0.10;0.10;;;;;;;29.75;26.53;101224.59;5125433;28;20072;-64
2023/06/05 10:41:09;;;;;;;0.10;0.10;;;;;;;29.60;26.66;101215.94;5125655;28;20047;-63
2023/06/05 10:43:35;;;;;;;0.10;0.10;;;;;;;29.59;27.19;101213.34;5125572;28;20015;-63
2023/06/05 10:46:31;;;;;;;0.10;0.10;;;;;;;29.60;26.80;101218.63;5125788;28;20035;-62
2023/06/05 10:49:19;;;;;;;0.30;0.30;;;;;;;29.58;27.04;101217.88;5125447;28;20052;-63
2023/06/05 10:51:47;;;;;;;0.10;0.10;;;;;;;29.72;26.96;101214.13;5125600;28;20054;-61
2023/06/05 10:54:21;;;;;;;0.30;0.30;;;;;;;29.60;26.89;101212.41;5125710;28;20031;-63
2023/06/05 10:56:56;;;;;;;0.10;0.10;;;;;;;29.16;27.52;101211.16;5125473;28;20039;-63
2023/06/05 10:59:35;;;;;;;0.52;0.52;;;;;;;28.68;28.43;101212.81;5125468;28;20091;-63
2023/06/05 11:02:08;;;;;;;0.20;0.20;;;;;;;27.81;28.95;101216.25;5125532;28;20098;-64
2023/06/05 11:04:55;;;;;;;0.10;0.10;;;;;;;26.70;30.64;101211.00;5125419;28;20031;-63
2023/06/05 11:07:24;;;;;;;2.50;1.20;;;;;;;25.93;31.43;101201.53;5111480;28;20046;-63
2023/06/05 11:10:05;;;;;;;0.63;0.63;;;;;;;25.33;32.30;101211.25;5127552;28;20115;-63
2023/06/05 11:12:42;;;;;;;0.30;0.30;;;;;;;24.92;33.60;101216.19;5129630;28;20370;-63
2023/06/05 11:15:22;;;;;;;0.20;0.20;;;;;;;24.63;33.66;101211.53;5129309;28;20034;-62
2023/06/05 11:17:48;;;;;;;0.10;0.10;;;;;;;24.45;34.30;101208.13;5129317;28;20090;-63
2023/06/05 11:20:23;;;;;;;0.10;0.10;;;;;;;24.08;34.91;101210.06;5128988;28;20051;-63
2023/06/05 11:22:55;;;;;;;0.10;0.10;;;;;;;23.59;36.44;101207.25;5128888;28;20031;-64
2023/06/05 11:25:21;;;;;;;0.10;0.10;;;;;;;23.20;36.91;101202.97;5129252;28;20092;-63